createdAt,value
2023-03-03T00:01:40.154Z,19.70
2023-03-03T00:04:06.596Z,19.08
2023-03-03T00:06:33.029Z,17.42
2023-03-03T00:08:59.886Z,20.23
2023-03-03T00:11:26.350Z,19.52
2023-03-03T00:13:52.734Z,17.70
2023-03-03T00:16:19.251Z,18.77
2023-03-03T00:18:45.719Z,19.33
2023-03-03T00:21:12.163Z,19.70
2023-03-03T00:23:38.614Z,18.05
2023-03-03T00:26:05.058Z,18.02
2023-03-03T00:28:31.472Z,17.65
2023-03-03T00:30:57.927Z,15.65
2023-03-03T00:33:24.358Z,16.63
2023-03-03T00:35:50.844Z,16.67
2023-03-03T00:38:17.248Z,15.88
2023-03-03T00:40:43.708Z,16.80
2023-03-03T00:43:10.200Z,19.38
2023-03-03T00:45:36.635Z,17.95
2023-03-03T00:48:03.022Z,18.38
2023-03-03T00:50:29.409Z,14.07
2023-03-03T00:52:55.847Z,18.95
2023-03-03T00:55:22.287Z,19.48
2023-03-03T00:57:48.702Z,15.48
2023-03-03T01:00:15.174Z,18.42
2023-03-03T01:02:41.649Z,18.70
2023-03-03T01:05:08.102Z,19.95
2023-03-03T01:07:34.576Z,19.00
2023-03-03T01:10:00.955Z,20.13
2023-03-03T01:12:27.363Z,18.83
2023-03-03T01:14:53.819Z,22.55
2023-03-03T01:17:20.284Z,20.00
2023-03-03T01:19:46.709Z,22.42
2023-03-03T01:22:13.134Z,19.85
2023-03-03T01:24:39.563Z,18.02
2023-03-03T01:27:06.021Z,20.63
2023-03-03T01:29:32.402Z,17.33
2023-03-03T01:31:58.813Z,16.52
2023-03-03T01:34:25.242Z,19.90
2023-03-03T01:36:51.702Z,18.77
2023-03-03T01:39:18.151Z,17.20
2023-03-03T01:41:44.588Z,15.82
2023-03-03T01:44:11.044Z,18.48
2023-03-03T01:46:37.584Z,18.55
2023-03-03T01:49:04.066Z,21.02
2023-03-03T01:51:30.570Z,21.92
2023-03-03T01:53:57.004Z,24.63
2023-03-03T01:56:23.430Z,25.33
2023-03-03T01:58:49.847Z,22.10
2023-03-03T02:01:16.303Z,20.75
2023-03-03T02:03:42.681Z,27.88
2023-03-03T02:06:09.102Z,24.55
2023-03-03T02:08:35.489Z,21.80
2023-03-03T02:11:01.901Z,21.75
2023-03-03T02:13:28.338Z,28.85
2023-03-03T02:15:54.727Z,24.65
2023-03-03T02:18:21.118Z,23.95
2023-03-03T02:20:47.573Z,25.05
2023-03-03T02:23:13.987Z,26.70
2023-03-03T02:25:42.701Z,31.38
2023-03-03T02:28:09.163Z,28.45
2023-03-03T02:30:35.557Z,24.50
2023-03-03T02:33:01.988Z,23.10
2023-03-03T02:35:28.465Z,21.58
2023-03-03T02:37:54.951Z,25.42
2023-03-03T02:40:21.397Z,22.02
2023-03-03T02:42:47.786Z,23.48
2023-03-03T02:45:14.216Z,25.08
2023-03-03T02:47:40.635Z,23.00
2023-03-03T02:50:07.067Z,28.63
2023-03-03T02:52:33.452Z,26.17
2023-03-03T02:54:59.936Z,28.42
2023-03-03T02:57:26.401Z,28.08
2023-03-03T02:59:52.860Z,20.65
2023-03-03T03:02:19.357Z,20.70
2023-03-03T03:04:45.820Z,19.75
2023-03-03T03:07:12.222Z,21.60
2023-03-03T03:09:38.598Z,23.25
2023-03-03T03:12:05.018Z,22.95
2023-03-03T03:14:31.414Z,21.88
2023-03-03T03:16:57.890Z,18.73
2023-03-03T03:19:24.297Z,19.75
2023-03-03T03:21:50.721Z,19.45
2023-03-03T03:24:17.128Z,21.45
2023-03-03T03:26:43.537Z,18.65
2023-03-03T03:29:10.015Z,18.20
2023-03-03T03:31:36.439Z,18.88
2023-03-03T03:34:02.848Z,17.05
2023-03-03T03:36:29.258Z,14.90
2023-03-03T03:38:55.690Z,19.52
2023-03-03T03:41:22.069Z,18.08
2023-03-03T03:43:48.433Z,20.83
2023-03-03T03:46:14.912Z,21.73
2023-03-03T03:48:41.296Z,20.85
2023-03-03T03:51:07.703Z,17.63
2023-03-03T03:53:34.112Z,21.70
2023-03-03T03:56:00.574Z,18.17
2023-03-03T03:58:27.008Z,19.10
2023-03-03T04:00:53.412Z,18.85
2023-03-03T04:03:19.980Z,18.38
2023-03-03T04:05:46.498Z,19.92
2023-03-03T04:08:12.981Z,16.63
2023-03-03T04:10:39.392Z,19.30
2023-03-03T04:13:05.841Z,17.38
2023-03-03T04:15:32.317Z,17.33
2023-03-03T04:17:58.716Z,16.67
2023-03-03T04:20:25.125Z,16.85
2023-03-03T04:22:51.556Z,17.15
2023-03-03T04:25:18.012Z,16.40
2023-03-03T04:27:44.419Z,18.98
2023-03-03T04:30:10.878Z,23.23
2023-03-03T04:32:37.321Z,20.52
2023-03-03T04:35:08.241Z,16.88
2023-03-03T04:37:35.196Z,19.43
2023-03-03T04:40:01.572Z,18.38
2023-03-03T04:42:28.026Z,17.15
2023-03-03T04:44:54.487Z,19.40
2023-03-03T04:47:20.892Z,16.55
2023-03-03T04:49:47.275Z,20.30
2023-03-03T04:52:13.703Z,18.15
2023-03-03T04:54:40.141Z,17.75
2023-03-03T04:57:06.540Z,16.25
2023-03-03T04:59:32.990Z,18.45
2023-03-03T05:01:59.455Z,18.13
2023-03-03T05:04:26.011Z,13.77
2023-03-03T05:06:52.426Z,16.08
2023-03-03T05:09:18.819Z,13.65
2023-03-03T05:11:45.190Z,14.63
2023-03-03T05:14:11.598Z,12.65
2023-03-03T05:16:38.093Z,13.13
2023-03-03T05:19:04.552Z,12.07
2023-03-03T05:21:30.950Z,12.38
2023-03-03T05:23:57.417Z,13.55
2023-03-03T05:26:23.825Z,14.10
2023-03-03T05:28:50.189Z,12.18
2023-03-03T05:31:16.676Z,14.38
2023-03-03T05:33:43.124Z,13.68
2023-03-03T05:36:09.584Z,14.63
2023-03-03T05:38:36.039Z,14.23
2023-03-03T05:41:02.479Z,11.63
2023-03-03T05:43:28.870Z,14.50
2023-03-03T05:45:55.296Z,14.82
2023-03-03T05:48:21.703Z,15.05
2023-03-03T05:50:48.497Z,15.23
2023-03-03T05:53:14.904Z,17.70
2023-03-03T05:55:41.275Z,17.50
2023-03-03T05:58:10.476Z,17.42
2023-03-03T06:00:36.888Z,19.30
2023-03-03T06:03:03.428Z,19.85
2023-03-03T06:05:29.884Z,16.05
2023-03-03T06:07:56.330Z,18.15
2023-03-03T06:10:22.755Z,17.58
2023-03-03T06:12:49.186Z,15.63
2023-03-03T06:15:15.683Z,17.23
2023-03-03T06:17:42.130Z,14.25
2023-03-03T06:20:08.609Z,16.15
2023-03-03T06:22:35.034Z,11.57
2023-03-03T06:25:01.429Z,14.55
2023-03-03T06:27:27.819Z,13.82
2023-03-03T06:29:54.209Z,12.63
2023-03-03T06:32:20.687Z,12.88
2023-03-03T06:34:47.113Z,14.88
2023-03-03T06:37:13.545Z,18.17
2023-03-03T06:39:39.987Z,14.38
2023-03-03T06:42:06.396Z,14.18
2023-03-03T06:44:32.837Z,14.50
2023-03-03T06:46:59.262Z,17.83
2023-03-03T06:49:25.744Z,17.33
2023-03-03T06:51:52.154Z,17.27
2023-03-03T06:54:18.551Z,19.48
2023-03-03T06:56:45.100Z,15.15
2023-03-03T06:59:11.537Z,15.27
2023-03-03T07:01:37.963Z,20.77
2023-03-03T07:04:04.491Z,15.25
2023-03-03T07:06:30.916Z,14.02
2023-03-03T07:08:57.299Z,15.43
2023-03-03T07:11:23.687Z,13.70
2023-03-03T07:13:50.163Z,15.32
2023-03-03T07:16:16.573Z,13.55
2023-03-03T07:18:43.059Z,12.70
2023-03-03T07:21:09.481Z,12.32
2023-03-03T07:23:35.874Z,15.30
2023-03-03T07:26:02.279Z,12.93
2023-03-03T07:28:28.704Z,12.57
2023-03-03T07:30:55.109Z,14.70
2023-03-03T07:33:21.497Z,13.50
2023-03-03T07:35:47.950Z,16.67
2023-03-03T07:38:14.469Z,13.98
2023-03-03T07:40:41.043Z,13.88
2023-03-03T07:43:07.458Z,12.27
2023-03-03T07:45:33.934Z,14.50
2023-03-03T07:48:00.568Z,16.30
2023-03-03T07:50:26.937Z,13.52
2023-03-03T07:52:53.371Z,12.30
2023-03-03T07:55:19.796Z,15.18
2023-03-03T07:57:46.220Z,12.32
2023-03-03T08:00:12.660Z,12.80
2023-03-03T08:02:39.074Z,12.45
2023-03-03T08:05:05.720Z,15.90
2023-03-03T08:07:32.245Z,13.88
2023-03-03T08:09:58.660Z,11.25
2023-03-03T08:12:25.034Z,11.88
2023-03-03T08:14:51.425Z,16.02
2023-03-03T08:17:17.799Z,11.02
2023-03-03T08:19:44.250Z,12.15
2023-03-03T08:22:10.772Z,10.65
2023-03-03T08:24:38.559Z,9.18
2023-03-03T08:27:05.109Z,11.38
2023-03-03T08:29:31.661Z,10.90
2023-03-03T08:31:58.232Z,10.35
2023-03-03T08:34:24.745Z,14.45
2023-03-03T08:36:51.149Z,10.13
2023-03-03T08:39:17.578Z,12.13
2023-03-03T08:41:44.022Z,12.88
2023-03-03T08:44:10.422Z,10.90
2023-03-03T08:46:36.949Z,9.82
2023-03-03T08:49:03.366Z,10.02
2023-03-03T08:51:29.778Z,10.43
2023-03-03T08:53:56.166Z,12.05
2023-03-03T08:56:22.564Z,10.35
2023-03-03T08:59:01.548Z,10.57
2023-03-03T09:01:28.559Z,10.82
2023-03-03T09:03:55.053Z,8.98
2023-03-03T09:06:21.485Z,10.57
2023-03-03T09:08:47.934Z,8.77
2023-03-03T09:11:14.371Z,9.93
2023-03-03T09:13:40.792Z,9.85
2023-03-03T09:16:07.417Z,9.80
2023-03-03T09:18:33.867Z,11.93
2023-03-03T09:21:00.605Z,10.75
2023-03-03T09:23:27.055Z,10.77
2023-03-03T09:25:53.500Z,11.15
2023-03-03T09:28:19.928Z,10.52
2023-03-03T09:30:46.362Z,8.82
2023-03-03T09:33:12.786Z,10.07
2023-03-03T09:35:39.236Z,9.18
2023-03-03T09:38:05.676Z,9.55
2023-03-03T09:40:32.149Z,11.05
2023-03-03T09:42:58.553Z,10.43
2023-03-03T09:45:25.859Z,9.80
2023-03-03T09:47:52.259Z,7.40
2023-03-03T09:50:18.661Z,7.38
2023-03-03T09:52:45.116Z,8.25
2023-03-03T09:55:11.511Z,8.38
2023-03-03T09:57:37.968Z,9.07
2023-03-03T10:00:04.390Z,7.35
2023-03-03T10:02:30.773Z,7.90
2023-03-03T10:04:57.167Z,6.50
2023-03-03T10:07:23.539Z,6.65
2023-03-03T10:09:49.909Z,6.43
2023-03-03T10:12:17.784Z,5.38
2023-03-03T10:14:44.333Z,7.30
2023-03-03T10:17:10.800Z,5.40
2023-03-03T10:19:37.285Z,5.78
2023-03-03T10:22:03.747Z,6.22
2023-03-03T10:24:30.147Z,6.20
2023-03-03T10:27:12.105Z,5.32
2023-03-03T10:29:39.327Z,4.43
2023-03-03T10:32:05.861Z,5.32
2023-03-03T10:34:32.389Z,5.65
2023-03-03T10:36:58.781Z,5.10
2023-03-03T10:39:25.175Z,6.20
2023-03-03T10:41:51.546Z,7.13
2023-03-03T10:44:17.949Z,5.68
2023-03-03T10:46:44.309Z,5.45
2023-03-03T10:49:10.681Z,5.20
2023-03-03T10:51:37.127Z,4.32
2023-03-03T10:54:03.604Z,5.45
2023-03-03T10:56:32.117Z,5.43
2023-03-03T10:59:00.099Z,4.55
2023-03-03T11:01:26.593Z,4.63
2023-03-03T11:03:52.994Z,5.82
2023-03-03T11:06:19.376Z,3.75
2023-03-03T11:08:45.836Z,4.15
2023-03-03T11:11:12.286Z,4.63
2023-03-03T11:13:38.674Z,4.45
2023-03-03T11:16:05.052Z,5.35
2023-03-03T11:18:31.425Z,5.65
2023-03-03T11:20:57.806Z,5.57
2023-03-03T11:23:24.254Z,4.88
2023-03-03T11:25:50.651Z,4.40
2023-03-03T11:28:17.081Z,6.95
2023-03-03T11:30:43.513Z,4.55
2023-03-03T11:33:09.996Z,5.80
2023-03-03T11:35:36.497Z,5.60
2023-03-03T11:38:02.924Z,6.88
2023-03-03T11:40:29.382Z,5.80
2023-03-03T11:42:55.846Z,4.50
2023-03-03T11:45:22.301Z,4.68
2023-03-03T11:47:48.688Z,3.47
2023-03-03T11:50:15.060Z,5.05
2023-03-03T11:52:41.532Z,3.42
2023-03-03T11:55:07.979Z,4.25
2023-03-03T11:57:34.398Z,4.70
2023-03-03T12:00:00.919Z,3.47
2023-03-03T12:02:27.359Z,4.03
2023-03-03T12:04:53.784Z,3.80
2023-03-03T12:07:20.235Z,4.60
2023-03-03T12:09:46.674Z,2.75
2023-03-03T12:12:13.124Z,2.83
2023-03-03T12:14:39.561Z,4.10
2023-03-03T12:17:06.129Z,2.50
2023-03-03T12:19:32.553Z,3.28
2023-03-03T12:21:59.014Z,4.75
2023-03-03T12:24:25.421Z,3.15
2023-03-03T12:26:51.873Z,3.30
2023-03-03T12:29:18.288Z,4.78
2023-03-03T12:31:44.745Z,2.25
2023-03-03T12:34:11.174Z,2.65
2023-03-03T12:36:37.577Z,2.97
2023-03-03T12:39:03.951Z,2.60
2023-03-03T12:41:30.499Z,2.53
2023-03-03T12:43:56.918Z,2.72
2023-03-03T12:46:28.603Z,4.38
2023-03-03T12:48:55.371Z,4.63
2023-03-03T12:51:21.750Z,5.65
2023-03-03T12:53:48.221Z,3.25
2023-03-03T12:56:14.634Z,4.07
2023-03-03T12:58:41.105Z,2.42
2023-03-03T13:01:07.577Z,4.00
2023-03-03T13:03:35.717Z,3.17
2023-03-03T13:06:05.438Z,3.42
2023-03-03T13:08:31.858Z,2.67
2023-03-03T13:10:58.306Z,3.92
2023-03-03T13:13:24.700Z,3.65
2023-03-03T13:15:55.690Z,3.63
2023-03-03T13:18:22.766Z,2.47
2023-03-03T13:20:49.194Z,2.08
2023-03-03T13:23:15.666Z,2.10
2023-03-03T13:25:42.096Z,3.08
2023-03-03T13:28:08.515Z,2.40
2023-03-03T13:30:34.895Z,2.15
2023-03-03T13:33:01.587Z,3.50
2023-03-03T13:35:28.066Z,4.22
2023-03-03T13:37:54.483Z,4.32
2023-03-03T13:40:20.922Z,4.60
2023-03-03T13:42:47.306Z,5.93
2023-03-03T13:45:13.701Z,2.70
2023-03-03T13:47:40.082Z,2.13
2023-03-03T13:50:06.522Z,3.38
2023-03-03T13:52:33.006Z,2.17
2023-03-03T13:54:59.428Z,1.10
2023-03-03T13:57:25.865Z,2.13
2023-03-03T13:59:52.312Z,1.27
2023-03-03T14:02:18.777Z,1.30
2023-03-03T14:04:45.162Z,3.22
2023-03-03T14:07:11.912Z,2.30
2023-03-03T14:09:38.404Z,3.88
2023-03-03T14:12:04.819Z,2.30
2023-03-03T14:14:31.262Z,2.10
2023-03-03T14:16:57.815Z,1.17
2023-03-03T14:19:24.225Z,1.85
2023-03-03T14:21:50.873Z,3.85
2023-03-03T14:24:17.276Z,2.33
2023-03-03T14:26:43.724Z,3.00
2023-03-03T14:29:10.134Z,1.30
2023-03-03T14:31:36.538Z,1.55
2023-03-03T14:34:02.971Z,1.98
2023-03-03T14:36:30.494Z,1.23
2023-03-03T14:38:57.019Z,2.70
2023-03-03T14:41:23.484Z,2.40
2023-03-03T14:43:49.873Z,1.75
2023-03-03T14:46:16.337Z,2.33
2023-03-03T14:48:42.775Z,2.80
2023-03-03T14:51:09.532Z,2.40
2023-03-03T14:53:35.965Z,3.08
2023-03-03T14:56:02.452Z,3.78
2023-03-03T14:58:28.890Z,4.35
2023-03-03T15:00:55.342Z,5.68
2023-03-03T15:03:21.810Z,5.97
2023-03-03T15:05:48.262Z,4.00
2023-03-03T15:08:14.673Z,3.63
2023-03-03T15:10:41.136Z,3.25
2023-03-03T15:13:07.614Z,4.57
2023-03-03T15:15:34.022Z,3.30
2023-03-03T15:18:00.507Z,6.30
2023-03-03T15:20:26.978Z,4.82
2023-03-03T15:22:53.392Z,5.60
2023-03-03T15:25:21.001Z,4.57
2023-03-03T15:27:47.564Z,7.53
2023-03-03T15:30:13.983Z,4.30
2023-03-03T15:32:40.653Z,5.95
2023-03-03T15:35:07.150Z,5.25
2023-03-03T15:37:33.607Z,5.75
2023-03-03T15:40:00.004Z,5.20
2023-03-03T15:42:26.477Z,5.05
2023-03-03T15:44:52.890Z,4.75
2023-03-03T15:47:19.309Z,4.60
2023-03-03T15:49:45.690Z,8.43
2023-03-03T15:52:12.178Z,5.82
2023-03-03T15:54:38.631Z,4.38
2023-03-03T15:57:05.168Z,6.55
2023-03-03T15:59:31.718Z,4.45
2023-03-03T16:01:58.193Z,7.82
2023-03-03T16:04:24.589Z,3.88
2023-03-03T16:06:50.999Z,3.08
2023-03-03T16:09:17.415Z,3.78
2023-03-03T16:11:43.870Z,3.63
2023-03-03T16:14:10.314Z,2.40
2023-03-03T16:16:36.811Z,3.70
2023-03-03T16:19:03.981Z,3.92
2023-03-03T16:21:30.375Z,2.35
2023-03-03T16:23:56.791Z,3.15
2023-03-03T16:26:23.258Z,3.05
2023-03-03T16:28:49.710Z,3.33
2023-03-03T16:31:16.159Z,4.50
2023-03-03T16:33:42.608Z,3.83
2023-03-03T16:36:08.992Z,3.58
2023-03-03T16:38:35.385Z,2.15
2023-03-03T16:41:01.774Z,1.67
2023-03-03T16:43:28.228Z,3.03
2023-03-03T16:45:54.724Z,1.63
2023-03-03T16:48:21.159Z,4.78
2023-03-03T16:50:47.574Z,2.33
2023-03-03T16:53:14.031Z,4.90
2023-03-03T16:55:40.639Z,3.35
2023-03-03T16:58:07.070Z,3.30
2023-03-03T17:00:33.525Z,1.92
2023-03-03T17:02:59.938Z,1.83
2023-03-03T17:05:26.361Z,1.30
2023-03-03T17:07:52.771Z,1.20
2023-03-03T17:10:19.189Z,2.05
2023-03-03T17:12:45.682Z,1.38
2023-03-03T17:15:12.153Z,4.03
2023-03-03T17:17:38.649Z,1.50
2023-03-03T17:20:05.018Z,1.38
2023-03-03T17:22:31.784Z,1.75
2023-03-03T17:24:58.201Z,1.55
2023-03-03T17:27:24.666Z,1.33
2023-03-03T17:29:51.249Z,1.48
2023-03-03T17:32:17.776Z,2.05
2023-03-03T17:34:44.225Z,2.15
2023-03-03T17:37:10.656Z,3.53
2023-03-03T17:39:37.060Z,4.53
2023-03-03T17:42:03.475Z,2.58
2023-03-03T17:44:29.944Z,3.00
2023-03-03T17:46:56.420Z,3.95
2023-03-03T17:49:22.808Z,2.10
2023-03-03T17:51:49.200Z,3.45
2023-03-03T17:54:16.858Z,4.88
2023-03-03T17:56:44.097Z,2.83
2023-03-03T17:59:10.734Z,2.65
2023-03-03T18:01:37.164Z,4.22
2023-03-03T18:04:03.672Z,1.52
2023-03-03T18:06:30.125Z,3.17
2023-03-03T18:09:11.652Z,3.40
2023-03-03T18:11:39.885Z,1.52
2023-03-03T18:14:06.324Z,3.63
2023-03-03T18:16:32.897Z,3.08
2023-03-03T18:18:59.371Z,5.85
2023-03-03T18:21:25.758Z,6.63
2023-03-03T18:23:52.211Z,3.70
2023-03-03T18:26:18.629Z,5.40
2023-03-03T18:28:45.045Z,4.07
2023-03-03T18:31:11.482Z,5.45
2023-03-03T18:33:37.886Z,5.80
2023-03-03T18:36:04.553Z,8.77
2023-03-03T18:38:31.055Z,10.88
2023-03-03T18:40:57.505Z,8.43
2023-03-03T18:43:24.087Z,6.53
2023-03-03T18:45:50.636Z,5.00
2023-03-03T18:48:17.142Z,4.85
2023-03-03T18:50:43.631Z,9.48
2023-03-03T18:53:10.041Z,6.25
2023-03-03T18:55:36.482Z,4.57
2023-03-03T18:58:02.889Z,7.10
2023-03-03T19:00:29.271Z,3.30
2023-03-03T19:02:55.707Z,6.63
2023-03-03T19:05:22.215Z,6.70
2023-03-03T19:07:48.631Z,11.23
2023-03-03T19:10:15.086Z,8.45
2023-03-03T19:12:41.490Z,6.18
2023-03-03T19:15:09.481Z,9.20
2023-03-03T19:17:37.540Z,10.80
2023-03-03T19:20:03.988Z,8.45
2023-03-03T19:22:30.424Z,6.75
2023-03-03T19:24:56.843Z,7.25
2023-03-03T19:27:23.277Z,7.45
2023-03-03T19:29:49.671Z,8.13
2023-03-03T19:32:16.158Z,5.82
2023-03-03T19:34:42.578Z,9.13
2023-03-03T19:37:08.957Z,9.60
2023-03-03T19:39:35.390Z,10.65
2023-03-03T19:42:02.007Z,7.75
2023-03-03T19:44:28.460Z,9.00
2023-03-03T19:46:54.992Z,10.05
2023-03-03T19:49:21.485Z,7.75
2023-03-03T19:51:47.942Z,8.00
2023-03-03T19:54:14.411Z,7.22
2023-03-03T19:56:40.798Z,6.47
2023-03-03T19:59:07.223Z,7.68
2023-03-03T20:01:33.763Z,5.63
2023-03-03T20:04:00.163Z,7.05
2023-03-03T20:06:26.548Z,6.43
2023-03-03T20:08:52.941Z,6.18
2023-03-03T20:11:19.370Z,5.75
2023-03-03T20:13:45.834Z,9.48
2023-03-03T20:16:12.326Z,8.48
2023-03-03T20:18:38.737Z,8.75
2023-03-03T20:21:05.190Z,9.32
2023-03-03T20:23:31.820Z,6.53
2023-03-03T20:25:58.264Z,9.23
2023-03-03T20:28:24.688Z,9.48
2023-03-03T20:30:51.074Z,7.43
2023-03-03T20:33:17.489Z,8.05
2023-03-03T20:35:45.098Z,10.10
2023-03-03T20:38:11.496Z,12.85
2023-03-03T20:40:37.955Z,10.15
2023-03-03T20:43:04.396Z,6.93
2023-03-03T20:45:30.932Z,11.35
2023-03-03T20:47:57.394Z,7.45
2023-03-03T20:50:23.871Z,6.85
2023-03-03T20:52:50.325Z,7.38
2023-03-03T20:55:16.714Z,8.38
2023-03-03T20:57:43.178Z,8.40
2023-03-03T21:00:09.776Z,9.27
2023-03-03T21:02:36.184Z,7.00
2023-03-03T21:05:02.865Z,6.18
2023-03-03T21:07:29.263Z,5.95
2023-03-03T21:09:55.699Z,9.48
2023-03-03T21:12:22.188Z,11.10
2023-03-03T21:14:48.568Z,7.88
2023-03-03T21:17:14.952Z,6.00
2023-03-03T21:19:41.355Z,11.18
2023-03-03T21:22:07.733Z,8.40
2023-03-03T21:24:34.101Z,8.50
2023-03-03T21:27:00.475Z,9.23
2023-03-03T21:29:26.914Z,12.60
2023-03-03T21:31:53.413Z,10.60
2023-03-03T21:34:19.904Z,11.95
2023-03-03T21:36:46.355Z,8.60
2023-03-03T21:39:12.784Z,7.15
2023-03-03T21:41:39.398Z,12.90
2023-03-03T21:44:05.819Z,7.65
2023-03-03T21:46:32.234Z,7.80
2023-03-03T21:48:58.629Z,5.30
2023-03-03T21:51:25.073Z,9.35
2023-03-03T21:53:51.465Z,8.77
2023-03-03T21:56:17.941Z,6.35
2023-03-03T21:58:44.355Z,8.63
2023-03-03T22:01:10.824Z,8.95
2023-03-03T22:03:37.296Z,7.40
2023-03-03T22:06:03.677Z,8.55
2023-03-03T22:08:30.114Z,6.38
2023-03-03T22:10:56.619Z,7.35
2023-03-03T22:13:23.181Z,11.15
2023-03-03T22:15:49.622Z,8.75
2023-03-03T22:18:16.032Z,10.43
2023-03-03T22:20:42.434Z,8.27
2023-03-03T22:23:08.840Z,8.88
2023-03-03T22:25:35.282Z,8.23
2023-03-03T22:28:01.852Z,9.25
2023-03-03T22:30:28.304Z,6.25
2023-03-03T22:32:54.772Z,7.88
2023-03-03T22:35:21.406Z,11.50
2023-03-03T22:37:47.864Z,12.45
2023-03-03T22:40:14.265Z,11.38
2023-03-03T22:42:40.728Z,7.13
2023-03-03T22:45:07.159Z,9.07
2023-03-03T22:47:33.549Z,9.00
2023-03-03T22:49:59.997Z,8.25
2023-03-03T22:52:26.427Z,7.45
2023-03-03T22:54:52.887Z,10.57
2023-03-03T22:57:19.331Z,8.05
2023-03-03T22:59:45.735Z,7.07
2023-03-03T23:02:12.153Z,10.20
2023-03-03T23:04:38.634Z,6.90
2023-03-03T23:07:05.096Z,8.68
2023-03-03T23:09:31.857Z,9.90
2023-03-03T23:11:58.270Z,9.25
2023-03-03T23:14:24.669Z,7.50
2023-03-03T23:16:51.098Z,7.65
2023-03-03T23:19:17.592Z,6.68
2023-03-03T23:21:44.042Z,5.28
2023-03-03T23:24:10.491Z,9.60
2023-03-03T23:26:36.885Z,8.00
2023-03-03T23:29:03.302Z,7.00
2023-03-03T23:31:29.852Z,7.20
2023-03-03T23:33:56.280Z,8.80
2023-03-03T23:36:22.701Z,6.00
2023-03-03T23:38:49.134Z,7.07
2023-03-03T23:41:15.540Z,3.78
2023-03-03T23:43:41.909Z,6.57
2023-03-03T23:46:08.327Z,6.43
2023-03-03T23:48:34.812Z,9.90
2023-03-03T23:51:01.211Z,5.15
2023-03-03T23:53:27.632Z,5.35
2023-03-03T23:55:54.082Z,6.93
2023-03-03T23:58:20.497Z,6.47
